createdAt,value
2023-04-16T00:00:29.661Z,32.5425
2023-04-16T00:01:33.561Z,32.5637
2023-04-16T00:02:37.624Z,32.5601
2023-04-16T00:03:41.815Z,32.5356
2023-04-16T00:04:45.863Z,32.5500
2023-04-16T00:05:49.746Z,32.5484
2023-04-16T00:06:53.655Z,32.5137
2023-04-16T00:07:57.530Z,32.5626
2023-04-16T00:09:01.414Z,32.5681
2023-04-16T00:10:05.333Z,32.5473
2023-04-16T00:11:09.193Z,32.5653
2023-04-16T00:12:13.083Z,32.5905
2023-04-16T00:13:16.985Z,32.5769
2023-04-16T00:14:20.877Z,32.5392
2023-04-16T00:15:24.784Z,32.5635
2023-04-16T00:16:28.995Z,32.5909
2023-04-16T00:17:32.963Z,32.5808
2023-04-16T00:18:36.841Z,32.5979
2023-04-16T00:19:40.742Z,32.5836
2023-04-16T00:20:44.615Z,32.5789
2023-04-16T00:21:48.754Z,32.5909
2023-04-16T00:22:52.652Z,32.5769
2023-04-16T00:23:56.745Z,32.5797
2023-04-16T00:25:00.646Z,32.5667
2023-04-16T00:26:04.555Z,32.5769
2023-04-16T00:27:08.440Z,32.6000
2023-04-16T00:28:12.350Z,32.6183
2023-04-16T00:29:16.236Z,32.6178
2023-04-16T00:30:20.132Z,32.6136
2023-04-16T00:31:24.350Z,32.6317
2023-04-16T00:32:28.379Z,32.6225
2023-04-16T00:33:32.287Z,32.6080
2023-04-16T00:34:32.496Z,32.6082
2023-04-16T00:35:36.392Z,32.6064
2023-04-16T00:36:40.329Z,32.6110
2023-04-16T00:37:44.206Z,32.6111
2023-04-16T00:38:48.320Z,32.6181
2023-04-16T00:39:52.231Z,32.6238
2023-04-16T00:40:56.100Z,32.6196
2023-04-16T00:41:59.995Z,32.6363
2023-04-16T00:43:03.875Z,32.6603
2023-04-16T00:44:07.791Z,32.6720
2023-04-16T00:45:11.676Z,32.6525
2023-04-16T00:46:15.610Z,32.6653
2023-04-16T00:47:19.484Z,32.6443
2023-04-16T00:48:23.378Z,32.6488
2023-04-16T00:49:27.278Z,32.6502
2023-04-16T00:50:31.160Z,32.6679
2023-04-16T00:51:35.060Z,32.6546
2023-04-16T00:52:38.936Z,32.6612
2023-04-16T00:53:42.838Z,32.6659
2023-04-16T00:54:46.720Z,32.6762
2023-04-16T00:55:50.634Z,32.6770
2023-04-16T00:56:54.503Z,32.6693
2023-04-16T00:57:58.410Z,32.6735
2023-04-16T00:59:02.328Z,32.6536
2023-04-16T01:00:06.227Z,32.6293
2023-04-16T01:01:10.138Z,32.6284
2023-04-16T01:02:14.108Z,32.6439
2023-04-16T01:03:18.038Z,32.6542
2023-04-16T01:04:22.020Z,32.6427
2023-04-16T01:05:25.898Z,32.6525
2023-04-16T01:06:29.804Z,32.6630
2023-04-16T01:07:33.690Z,32.6899
2023-04-16T01:08:37.597Z,32.6680
2023-04-16T01:09:41.520Z,32.7009
2023-04-16T01:10:45.410Z,32.7031
2023-04-16T01:11:49.310Z,32.6859
2023-04-16T01:12:53.202Z,32.7075
2023-04-16T01:13:57.105Z,32.6939
2023-04-16T01:15:00.995Z,32.7146
2023-04-16T01:16:04.960Z,32.6886
2023-04-16T01:17:09.039Z,32.7006
2023-04-16T01:18:12.967Z,32.6934
2023-04-16T01:19:16.814Z,32.7075
2023-04-16T01:20:20.713Z,32.6964
2023-04-16T01:21:24.588Z,32.6964
2023-04-16T01:22:28.507Z,32.6991
2023-04-16T01:23:32.371Z,32.7339
2023-04-16T01:24:36.287Z,32.7290
2023-04-16T01:25:40.157Z,32.7296
2023-04-16T01:26:44.058Z,32.7003
2023-04-16T01:27:47.936Z,32.7094
2023-04-16T01:28:52.157Z,32.7157
2023-04-16T01:29:56.052Z,32.7030
2023-04-16T01:30:59.946Z,32.8222
2023-04-16T01:32:04.139Z,32.7166
2023-04-16T01:33:08.031Z,32.7118
2023-04-16T01:34:11.937Z,32.6814
2023-04-16T01:35:15.821Z,32.6619
2023-04-16T01:36:19.731Z,32.7546
2023-04-16T01:37:23.617Z,32.7353
2023-04-16T01:38:27.515Z,32.6832
2023-04-16T01:39:31.602Z,32.7118
2023-04-16T01:40:35.511Z,32.7263
2023-04-16T01:41:39.406Z,32.7564
2023-04-16T01:42:43.309Z,32.7689
2023-04-16T01:43:47.423Z,32.7321
2023-04-16T01:44:51.308Z,32.7110
2023-04-16T01:45:55.207Z,32.7187
2023-04-16T01:46:59.140Z,32.7119
2023-04-16T01:48:03.084Z,32.7154
2023-04-16T01:49:07.047Z,32.6786
2023-04-16T01:50:11.012Z,32.7026
2023-04-16T01:51:14.913Z,32.7229
2023-04-16T01:52:18.795Z,32.7344
2023-04-16T01:53:22.692Z,32.7343
2023-04-16T01:54:26.805Z,32.7040
2023-04-16T01:55:30.710Z,32.7546
2023-04-16T01:56:34.588Z,32.7600
2023-04-16T01:57:38.509Z,32.7311
2023-04-16T01:58:42.379Z,32.7624
2023-04-16T01:59:46.277Z,32.7381
2023-04-16T02:00:50.167Z,32.7563
2023-04-16T02:01:54.099Z,32.7454
2023-04-16T02:02:58.069Z,32.7599
2023-04-16T02:04:02.339Z,32.7933
2023-04-16T02:05:07.097Z,32.7529
2023-04-16T02:06:07.810Z,32.7626
2023-04-16T02:07:11.730Z,32.7520
2023-04-16T02:08:15.605Z,32.7841
2023-04-16T02:09:19.718Z,32.7667
2023-04-16T02:10:31.156Z,32.8220
2023-04-16T02:11:24.457Z,32.7878
2023-04-16T02:12:28.363Z,32.7688
2023-04-16T02:13:32.281Z,32.7719
2023-04-16T02:14:36.475Z,32.7845
2023-04-16T02:15:40.347Z,32.7970
2023-04-16T02:16:40.877Z,32.7893
2023-04-16T02:17:44.854Z,32.7972
2023-04-16T02:18:48.718Z,32.7991
2023-04-16T02:19:52.646Z,32.7647
2023-04-16T02:20:56.524Z,32.8178
2023-04-16T02:22:00.428Z,32.8203
2023-04-16T02:23:04.289Z,32.8177
2023-04-16T02:24:08.203Z,32.8509
2023-04-16T02:25:12.076Z,32.8097
2023-04-16T02:26:15.980Z,32.8145
2023-04-16T02:27:19.884Z,32.8156
2023-04-16T02:28:23.758Z,32.8248
2023-04-16T02:29:27.817Z,32.8105
2023-04-16T02:30:31.719Z,32.8353
2023-04-16T02:31:35.667Z,32.8163
2023-04-16T02:32:39.574Z,32.7915
2023-04-16T02:33:43.478Z,32.8028
2023-04-16T02:34:47.381Z,32.8248
2023-04-16T02:35:51.271Z,32.8462
2023-04-16T02:36:55.171Z,32.8177
2023-04-16T02:37:59.080Z,32.8187
2023-04-16T02:39:02.949Z,32.8312
2023-04-16T02:40:06.832Z,32.8356
2023-04-16T02:41:10.736Z,32.8487
2023-04-16T02:42:14.626Z,32.8470
2023-04-16T02:43:18.524Z,32.8518
2023-04-16T02:44:22.652Z,32.8597
2023-04-16T02:45:26.538Z,32.8561
2023-04-16T02:46:30.912Z,32.8828
2023-04-16T02:47:34.823Z,32.8733
2023-04-16T02:48:38.731Z,32.8768
2023-04-16T02:49:42.622Z,32.8728
2023-04-16T02:50:46.509Z,32.8442
2023-04-16T02:51:50.615Z,32.8290
2023-04-16T02:52:54.509Z,32.8557
2023-04-16T02:53:58.394Z,32.8930
2023-04-16T02:55:02.307Z,32.8742
2023-04-16T02:56:06.210Z,32.8838
2023-04-16T02:57:10.340Z,32.9112
2023-04-16T02:58:14.235Z,32.9171
2023-04-16T02:59:18.421Z,32.9053
2023-04-16T03:00:22.334Z,32.9000
2023-04-16T03:01:26.277Z,32.9014
2023-04-16T03:02:30.263Z,32.8952
2023-04-16T03:03:34.143Z,32.9051
2023-04-16T03:04:38.458Z,32.8874
2023-04-16T03:05:42.493Z,32.8995
2023-04-16T03:06:46.381Z,32.8874
2023-04-16T03:07:50.268Z,32.9051
2023-04-16T03:08:54.151Z,32.9063
2023-04-16T03:09:58.054Z,32.9077
2023-04-16T03:11:01.934Z,32.9198
2023-04-16T03:12:06.035Z,32.9388
2023-04-16T03:13:09.930Z,32.9690
2023-04-16T03:14:14.030Z,32.9629
2023-04-16T03:15:17.969Z,32.9803
2023-04-16T03:16:22.104Z,33.0210
2023-04-16T03:17:26.028Z,33.0050
2023-04-16T03:18:29.899Z,33.0242
2023-04-16T03:19:34.004Z,33.0237
2023-04-16T03:20:37.923Z,33.0247
2023-04-16T03:21:41.837Z,33.0781
2023-04-16T03:22:45.749Z,33.0387
2023-04-16T03:23:49.647Z,33.0036
2023-04-16T03:24:53.558Z,33.0184
2023-04-16T03:25:57.486Z,33.0146
2023-04-16T03:27:01.609Z,33.0139
2023-04-16T03:28:05.513Z,33.0245
2023-04-16T03:29:05.860Z,33.0035
2023-04-16T03:30:09.758Z,32.9708
2023-04-16T03:31:13.931Z,32.9720
2023-04-16T03:32:17.858Z,32.9479
2023-04-16T03:33:21.736Z,32.9269
2023-04-16T03:34:25.626Z,32.9483
2023-04-16T03:35:29.532Z,32.9175
2023-04-16T03:36:33.674Z,32.9305
2023-04-16T03:37:37.573Z,32.9330
2023-04-16T03:38:41.484Z,32.9213
2023-04-16T03:39:45.623Z,32.9156
2023-04-16T03:40:49.486Z,32.9089
2023-04-16T03:41:53.414Z,32.9178
2023-04-16T03:42:57.300Z,32.9199
2023-04-16T03:44:01.405Z,32.8936
2023-04-16T03:45:05.316Z,32.8560
2023-04-16T03:46:09.243Z,32.8646
2023-04-16T03:47:13.367Z,32.8528
2023-04-16T03:48:17.267Z,32.8434
2023-04-16T03:49:21.358Z,32.8405
2023-04-16T03:50:25.296Z,32.8397
2023-04-16T03:51:29.149Z,32.8367
2023-04-16T03:52:33.051Z,32.8336
2023-04-16T03:53:36.921Z,32.8663
2023-04-16T03:54:40.824Z,32.8574
2023-04-16T03:55:44.692Z,32.8325
2023-04-16T03:56:48.892Z,32.8336
2023-04-16T03:57:52.811Z,32.8440
2023-04-16T03:58:56.699Z,32.8452
2023-04-16T04:00:00.569Z,32.8428
2023-04-16T04:01:04.480Z,32.8467
2023-04-16T04:02:08.461Z,32.8463
2023-04-16T04:03:12.654Z,32.8129
2023-04-16T04:04:16.911Z,32.8223
2023-04-16T04:05:20.821Z,32.8178
2023-04-16T04:06:24.744Z,32.8156
2023-04-16T04:07:28.632Z,32.8183
2023-04-16T04:08:32.532Z,32.7866
2023-04-16T04:09:36.637Z,32.7886
2023-04-16T04:10:40.530Z,32.7811
2023-04-16T04:11:44.693Z,32.7788
2023-04-16T04:12:48.568Z,32.7777
2023-04-16T04:13:52.465Z,32.7918
2023-04-16T04:14:56.349Z,32.7778
2023-04-16T04:16:00.260Z,32.8884
2023-04-16T04:17:04.143Z,32.9533
2023-04-16T04:18:08.044Z,32.9901
2023-04-16T04:19:12.338Z,33.0643
2023-04-16T04:20:16.243Z,33.0724
2023-04-16T04:21:20.153Z,33.1645
2023-04-16T04:22:24.067Z,33.3790
2023-04-16T04:23:27.948Z,33.5515
2023-04-16T04:24:28.291Z,33.7155
2023-04-16T04:25:32.172Z,33.7906
2023-04-16T04:26:36.132Z,33.7992
2023-04-16T04:27:39.971Z,33.8276
2023-04-16T04:28:43.847Z,33.9341
2023-04-16T04:29:47.958Z,34.0121
2023-04-16T04:30:51.845Z,34.0666
2023-04-16T04:31:55.993Z,34.1072
2023-04-16T04:32:59.945Z,34.1688
2023-04-16T04:34:04.128Z,34.2092
2023-04-16T04:35:08.013Z,34.2102
2023-04-16T04:36:11.891Z,34.2639
2023-04-16T04:37:15.791Z,34.3662
2023-04-16T04:38:19.675Z,34.3889
2023-04-16T04:39:23.555Z,34.4051
2023-04-16T04:40:27.478Z,34.4774
2023-04-16T04:41:31.585Z,34.5375
2023-04-16T04:42:35.479Z,34.5376
2023-04-16T04:43:39.391Z,34.5915
2023-04-16T04:44:43.301Z,34.6270
2023-04-16T04:45:47.300Z,34.6709
2023-04-16T04:46:51.459Z,34.6799
2023-04-16T04:47:55.391Z,34.6844
2023-04-16T04:48:59.502Z,34.7473
2023-04-16T04:50:03.449Z,34.7785
2023-04-16T04:51:07.333Z,34.7612
2023-04-16T04:52:11.243Z,34.7726
2023-04-16T04:53:15.200Z,34.8269
2023-04-16T04:54:19.060Z,34.8710
2023-04-16T04:55:22.968Z,34.8509
2023-04-16T04:56:26.907Z,34.8479
2023-04-16T04:57:30.809Z,34.8799
2023-04-16T04:58:34.922Z,34.8727
2023-04-16T04:59:38.812Z,34.9592
2023-04-16T05:00:42.691Z,34.9898
2023-04-16T05:01:46.881Z,34.9227
2023-04-16T05:02:50.906Z,34.8899
2023-04-16T05:03:55.139Z,34.9096
2023-04-16T05:04:59.044Z,34.9773
2023-04-16T05:06:02.930Z,35.0032
2023-04-16T05:07:06.827Z,34.9721
2023-04-16T05:08:10.710Z,35.0811
2023-04-16T05:09:14.600Z,35.0754
2023-04-16T05:10:18.482Z,35.0928
2023-04-16T05:11:22.589Z,35.1424
2023-04-16T05:12:26.480Z,35.2434
2023-04-16T05:13:30.367Z,35.3088
2023-04-16T05:14:34.257Z,35.3307
2023-04-16T05:15:38.131Z,35.3479
2023-04-16T05:16:42.019Z,35.3317
2023-04-16T05:17:45.909Z,35.3550
2023-04-16T05:18:49.838Z,35.3568
2023-04-16T05:19:53.756Z,35.3343
2023-04-16T05:20:57.619Z,35.2019
2023-04-16T05:22:01.493Z,35.1902
2023-04-16T05:23:05.405Z,35.2540
2023-04-16T05:24:09.706Z,35.1393
2023-04-16T05:25:13.591Z,35.1293
2023-04-16T05:26:17.688Z,35.1573
2023-04-16T05:27:21.561Z,35.1318
2023-04-16T05:28:25.458Z,35.1152
2023-04-16T05:29:29.341Z,35.1672
2023-04-16T05:30:33.266Z,35.1688
2023-04-16T05:31:37.334Z,35.1117
2023-04-16T05:32:41.267Z,35.1857
2023-04-16T05:33:45.421Z,35.1743
2023-04-16T05:34:49.291Z,35.1766
2023-04-16T05:35:53.204Z,35.2036
2023-04-16T05:36:57.105Z,35.1460
2023-04-16T05:38:01.007Z,35.0650
2023-04-16T05:39:05.148Z,35.0123
2023-04-16T05:40:09.031Z,34.9874
2023-04-16T05:41:12.929Z,34.9645
2023-04-16T05:42:16.848Z,34.9744
2023-04-16T05:43:20.736Z,34.9861
2023-04-16T05:44:24.661Z,35.0493
2023-04-16T05:45:28.545Z,35.0675
2023-04-16T05:46:32.771Z,35.0866
2023-04-16T05:47:36.738Z,35.0608
2023-04-16T05:48:40.813Z,35.1056
2023-04-16T05:49:44.858Z,35.0887
2023-04-16T05:50:48.729Z,34.9939
2023-04-16T05:51:52.635Z,35.0267
2023-04-16T05:52:56.537Z,34.9983
2023-04-16T05:54:00.679Z,34.9560
2023-04-16T05:55:04.602Z,34.9214
2023-04-16T05:56:08.725Z,34.9950
2023-04-16T05:57:12.624Z,35.0183
2023-04-16T05:58:16.496Z,34.9976
2023-04-16T05:59:20.385Z,34.9814
2023-04-16T06:00:24.280Z,34.8830
2023-04-16T06:01:28.425Z,34.8853
2023-04-16T06:02:32.427Z,34.9044
2023-04-16T06:03:36.720Z,34.9052
2023-04-16T06:04:40.634Z,34.9155
2023-04-16T06:05:44.571Z,34.8896
2023-04-16T06:06:48.423Z,34.9584
2023-04-16T06:07:52.323Z,34.9879
2023-04-16T06:08:56.207Z,34.9659
2023-04-16T06:10:00.110Z,34.9021
2023-04-16T06:11:04.232Z,34.9459
2023-04-16T06:12:08.158Z,34.9237
2023-04-16T06:13:12.054Z,34.9308
2023-04-16T06:14:16.165Z,34.9317
2023-04-16T06:15:20.069Z,34.9089
2023-04-16T06:16:24.015Z,34.9178
2023-04-16T06:17:27.915Z,34.9040
2023-04-16T06:18:32.030Z,34.8962
2023-04-16T06:19:35.916Z,34.9190
2023-04-16T06:20:39.824Z,34.9022
2023-04-16T06:21:43.730Z,34.8551
2023-04-16T06:22:47.603Z,34.8171
2023-04-16T06:23:51.853Z,34.8386
2023-04-16T06:24:55.746Z,34.8497
2023-04-16T06:25:59.624Z,34.8326
2023-04-16T06:27:03.664Z,34.8113
2023-04-16T06:28:07.563Z,34.7009
2023-04-16T06:29:11.765Z,34.7228
2023-04-16T06:30:15.724Z,34.8315
2023-04-16T06:31:19.879Z,34.8081
2023-04-16T06:32:23.816Z,34.7499
2023-04-16T06:33:27.725Z,34.7871
2023-04-16T06:34:31.623Z,34.8143
2023-04-16T06:35:35.509Z,34.8227
2023-04-16T06:36:39.408Z,34.8083
2023-04-16T06:37:43.306Z,34.7558
2023-04-16T06:38:47.178Z,34.7469
2023-04-16T06:39:51.053Z,34.7468
2023-04-16T06:40:55.158Z,34.6560
2023-04-16T06:41:59.055Z,34.5854
2023-04-16T06:43:02.935Z,34.6116
2023-04-16T06:44:06.830Z,34.5383
2023-04-16T06:45:10.699Z,34.4961
2023-04-16T06:46:14.828Z,34.4418
2023-04-16T06:47:18.766Z,34.4638
2023-04-16T06:48:22.910Z,34.4577
2023-04-16T06:49:26.814Z,34.5002
2023-04-16T06:50:30.696Z,34.4812
2023-04-16T06:51:34.587Z,34.5228
2023-04-16T06:52:38.490Z,34.6303
2023-04-16T06:53:42.616Z,34.6812
2023-04-16T06:54:46.506Z,34.6722
2023-04-16T06:55:50.390Z,34.6736
2023-04-16T06:56:54.308Z,34.7350
2023-04-16T06:57:58.198Z,34.7895
2023-04-16T06:59:02.344Z,34.8019
2023-04-16T07:00:06.249Z,34.8315
2023-04-16T07:01:10.405Z,34.8300
2023-04-16T07:02:14.380Z,34.8413
2023-04-16T07:03:18.518Z,34.8385
2023-04-16T07:04:22.491Z,34.8185
2023-04-16T07:05:26.377Z,34.8504
2023-04-16T07:06:30.286Z,34.8827
2023-04-16T07:07:34.184Z,34.8546
2023-04-16T07:08:38.418Z,34.8537
2023-04-16T07:09:42.301Z,34.8923
2023-04-16T07:10:46.415Z,34.8876
2023-04-16T07:11:50.322Z,34.8827
2023-04-16T07:12:54.209Z,34.8826
2023-04-16T07:13:58.120Z,34.9172
2023-04-16T07:15:01.986Z,34.9302
2023-04-16T07:16:05.910Z,34.9115
2023-04-16T07:17:09.778Z,34.8618
2023-04-16T07:18:13.958Z,34.9066
2023-04-16T07:19:17.998Z,34.8899
2023-04-16T07:20:21.895Z,34.9087
2023-04-16T07:21:25.793Z,34.8693
2023-04-16T07:22:29.696Z,34.8901
2023-04-16T07:23:33.633Z,34.8133
2023-04-16T07:24:37.513Z,34.8220
2023-04-16T07:25:41.481Z,34.8376
2023-04-16T07:26:45.384Z,34.8052
2023-04-16T07:27:49.273Z,34.8208
2023-04-16T07:28:53.182Z,34.8170
2023-04-16T07:29:57.084Z,34.8431
2023-04-16T07:31:00.974Z,34.7560
2023-04-16T07:32:04.990Z,34.7562
2023-04-16T07:33:09.050Z,34.7689
2023-04-16T07:34:12.913Z,34.7741
2023-04-16T07:35:16.823Z,34.7668
2023-04-16T07:36:20.712Z,34.8047
2023-04-16T07:37:24.615Z,34.7946
2023-04-16T07:38:28.754Z,34.7828
2023-04-16T07:39:32.688Z,34.7846
2023-04-16T07:40:36.704Z,34.7964
2023-04-16T07:41:40.591Z,34.7905
2023-04-16T07:42:44.452Z,34.7626
2023-04-16T07:43:48.334Z,34.7440
2023-04-16T07:44:52.240Z,34.7411
2023-04-16T07:45:56.490Z,34.7178
2023-04-16T07:47:00.464Z,34.7314
2023-04-16T07:48:04.774Z,34.7466
2023-04-16T07:49:08.876Z,34.7446
2023-04-16T07:50:12.863Z,34.7291
2023-04-16T07:51:16.759Z,34.7209
2023-04-16T07:52:20.668Z,34.7150
2023-04-16T07:53:24.555Z,34.6734
2023-04-16T07:54:29.175Z,34.6587
2023-04-16T07:55:33.108Z,34.6560
2023-04-16T07:56:37.052Z,34.5824
2023-04-16T07:57:40.917Z,34.5847
2023-04-16T07:58:44.834Z,34.5762
2023-04-16T07:59:48.705Z,34.5673
2023-04-16T08:00:52.815Z,34.5408
2023-04-16T08:01:56.727Z,34.5037
2023-04-16T08:03:00.883Z,34.5291
2023-04-16T08:04:04.995Z,34.5680
2023-04-16T08:05:08.959Z,34.5473
2023-04-16T08:06:12.838Z,34.5496
2023-04-16T08:07:16.753Z,34.5219
2023-04-16T08:08:16.915Z,34.5003
2023-04-16T08:09:20.803Z,34.4582
2023-04-16T08:10:24.899Z,34.4529
2023-04-16T08:11:28.816Z,34.4575
2023-04-16T08:12:32.715Z,34.4447
2023-04-16T08:13:36.614Z,34.4245
2023-04-16T08:14:40.482Z,34.3947
2023-04-16T08:15:44.634Z,34.4250
2023-04-16T08:16:48.533Z,34.4185
2023-04-16T08:17:52.756Z,34.3395
2023-04-16T08:18:56.609Z,34.3739
2023-04-16T08:20:00.506Z,34.3591
2023-04-16T08:21:04.392Z,34.3182
2023-04-16T08:22:08.316Z,34.2888
2023-04-16T08:23:12.195Z,34.2771
2023-04-16T08:24:16.127Z,34.2897
2023-04-16T08:25:20.000Z,34.3188
2023-04-16T08:26:24.002Z,34.3182
2023-04-16T08:27:27.901Z,34.2874
2023-04-16T08:28:32.024Z,34.3381
2023-04-16T08:29:35.935Z,34.3652
2023-04-16T08:30:39.841Z,34.3413
2023-04-16T08:31:43.775Z,34.3492
2023-04-16T08:32:50.045Z,34.3380
2023-04-16T08:33:48.852Z,34.3541
2023-04-16T08:34:52.753Z,34.3711
2023-04-16T08:35:56.991Z,34.3741
2023-04-16T08:37:00.994Z,34.2552
2023-04-16T08:38:04.912Z,34.3320
2023-04-16T08:39:08.913Z,34.3680
2023-04-16T08:40:13.083Z,34.3548
2023-04-16T08:41:17.218Z,34.2949
2023-04-16T08:42:21.131Z,34.3061
2023-04-16T08:43:25.013Z,34.3057
2023-04-16T08:44:28.939Z,34.2902
2023-04-16T08:45:33.118Z,34.3135
2023-04-16T08:46:37.024Z,34.3519
2023-04-16T08:47:40.911Z,34.3458
2023-04-16T08:48:44.787Z,34.3020
2023-04-16T08:49:48.721Z,34.3161
2023-04-16T08:50:52.580Z,34.3658
2023-04-16T08:51:54.080Z,34.3456
2023-04-16T08:52:58.213Z,34.3484
2023-04-16T08:54:02.310Z,34.3239
2023-04-16T08:55:06.221Z,34.3594
2023-04-16T08:56:10.104Z,34.3831
2023-04-16T08:57:13.987Z,34.3924
2023-04-16T08:58:18.202Z,34.4256
2023-04-16T08:59:22.089Z,34.4320
2023-04-16T09:00:26.218Z,34.4156
2023-04-16T09:01:30.145Z,34.3775
2023-04-16T09:02:34.134Z,34.3692
2023-04-16T09:03:38.345Z,34.3704
2023-04-16T09:04:42.383Z,34.2958
2023-04-16T09:05:46.280Z,34.3735
2023-04-16T09:06:50.163Z,34.4145
2023-04-16T09:07:54.059Z,34.4053
2023-04-16T09:08:57.953Z,34.3962
2023-04-16T09:10:01.914Z,34.3969
2023-04-16T09:11:05.814Z,34.3858
2023-04-16T09:12:09.700Z,34.3623
2023-04-16T09:13:13.596Z,34.3367
2023-04-16T09:14:17.482Z,34.3239
2023-04-16T09:15:21.598Z,34.2969
2023-04-16T09:16:25.534Z,34.2943
2023-04-16T09:17:29.497Z,34.2893
2023-04-16T09:18:33.372Z,34.2922
2023-04-16T09:19:37.270Z,34.3254
2023-04-16T09:20:41.320Z,34.3102
2023-04-16T09:21:45.207Z,34.3226
2023-04-16T09:22:49.104Z,34.3646
2023-04-16T09:23:52.984Z,34.3853
2023-04-16T09:24:56.885Z,34.3479
2023-04-16T09:26:00.962Z,34.3391
2023-04-16T09:27:04.862Z,34.3477
2023-04-16T09:28:09.016Z,34.3470
2023-04-16T09:29:12.887Z,34.3567
2023-04-16T09:30:16.793Z,34.3321
2023-04-16T09:31:21.013Z,34.3004
2023-04-16T09:32:24.911Z,34.3258
2023-04-16T09:33:28.808Z,34.2892
2023-04-16T09:34:32.703Z,34.2601
2023-04-16T09:35:36.849Z,34.2780
2023-04-16T09:36:40.737Z,34.3126
2023-04-16T09:37:44.875Z,34.2751
2023-04-16T09:38:48.751Z,34.2926
2023-04-16T09:39:52.655Z,34.3146
2023-04-16T09:40:56.723Z,34.2748
2023-04-16T09:42:00.613Z,34.3511
2023-04-16T09:43:05.018Z,34.3450
2023-04-16T09:44:08.918Z,34.3418
2023-04-16T09:45:12.791Z,34.3517
2023-04-16T09:46:16.704Z,34.3672
2023-04-16T09:47:20.598Z,34.3891
2023-04-16T09:48:24.476Z,34.3905
2023-04-16T09:49:28.407Z,34.4405
2023-04-16T09:50:32.315Z,34.4430
2023-04-16T09:51:36.220Z,34.4078
2023-04-16T09:52:40.341Z,34.4509
2023-04-16T09:53:44.220Z,34.4884
2023-04-16T09:54:48.116Z,34.4616
2023-04-16T09:55:52.248Z,34.4845
2023-04-16T09:56:56.161Z,34.4487
2023-04-16T09:58:00.084Z,34.4533
2023-04-16T09:59:04.006Z,34.4523
2023-04-16T10:00:07.926Z,34.4424
2023-04-16T10:01:12.006Z,34.4795
2023-04-16T10:02:16.560Z,34.4706
2023-04-16T10:03:20.657Z,34.4377
2023-04-16T10:04:24.572Z,34.4149
2023-04-16T10:05:28.525Z,34.4664
2023-04-16T10:06:32.407Z,34.5135
2023-04-16T10:07:36.528Z,34.5596
2023-04-16T10:08:40.408Z,34.5103
2023-04-16T10:09:44.272Z,34.4887
2023-04-16T10:10:48.153Z,34.5214
2023-04-16T10:11:52.051Z,34.4755
2023-04-16T10:12:56.188Z,34.5220
2023-04-16T10:14:00.172Z,34.5173
2023-04-16T10:15:04.311Z,34.4978
2023-04-16T10:16:08.201Z,34.4877
2023-04-16T10:17:12.117Z,34.5325
2023-04-16T10:18:16.008Z,34.4786
2023-04-16T10:19:19.929Z,34.5383
2023-04-16T10:20:23.823Z,34.5559
2023-04-16T10:21:27.740Z,34.5615
2023-04-16T10:22:31.614Z,34.5389
2023-04-16T10:23:35.508Z,34.5154
2023-04-16T10:24:39.417Z,34.5444
2023-04-16T10:25:43.545Z,34.5699
2023-04-16T10:26:47.428Z,34.5679
2023-04-16T10:27:51.560Z,34.5921
2023-04-16T10:28:55.456Z,34.6451
2023-04-16T10:29:59.342Z,34.6799
2023-04-16T10:31:03.281Z,34.6600
2023-04-16T10:32:07.159Z,34.6630
2023-04-16T10:33:11.093Z,34.6554
2023-04-16T10:34:14.964Z,34.6612
2023-04-16T10:35:18.870Z,34.6478
2023-04-16T10:36:22.779Z,34.6648
2023-04-16T10:37:26.976Z,34.6439
2023-04-16T10:38:30.880Z,34.6797
2023-04-16T10:39:34.805Z,34.7781
2023-04-16T10:40:38.725Z,34.7992
2023-04-16T10:41:42.628Z,34.8403
2023-04-16T10:42:46.535Z,34.8712
2023-04-16T10:43:50.450Z,34.8887
2023-04-16T10:44:54.342Z,34.8969
2023-04-16T10:45:58.482Z,34.8888
2023-04-16T10:47:02.418Z,34.9380
2023-04-16T10:48:06.350Z,34.9302
2023-04-16T10:49:10.319Z,34.9426
2023-04-16T10:50:14.545Z,34.9614
2023-04-16T10:51:18.466Z,34.9861
2023-04-16T10:52:22.393Z,35.0000
2023-04-16T10:53:26.269Z,34.9828
2023-04-16T10:54:30.143Z,35.0183
2023-04-16T10:55:34.025Z,35.0471
2023-04-16T10:56:37.908Z,35.0660
2023-04-16T10:57:41.787Z,35.0775
2023-04-16T10:58:45.673Z,35.1139
2023-04-16T10:59:49.902Z,35.0906
2023-04-16T11:00:53.810Z,35.1624
2023-04-16T11:01:57.798Z,35.1631
2023-04-16T11:03:01.768Z,35.2175
2023-04-16T11:04:05.793Z,35.2295
2023-04-16T11:05:09.755Z,35.2164
2023-04-16T11:06:13.676Z,35.2745
2023-04-16T11:07:17.568Z,35.3457
2023-04-16T11:08:21.440Z,35.3364
2023-04-16T11:09:25.347Z,35.2879
2023-04-16T11:10:29.459Z,35.3466
2023-04-16T11:11:33.375Z,35.3690
2023-04-16T11:12:37.399Z,35.3494
2023-04-16T11:13:43.133Z,35.3862
2023-04-16T11:14:42.124Z,35.4012
2023-04-16T11:15:46.274Z,35.4168
2023-04-16T11:16:50.159Z,35.4552
2023-04-16T11:17:54.152Z,35.4703
2023-04-16T11:18:58.027Z,35.4598
2023-04-16T11:20:02.136Z,35.4799
2023-04-16T11:21:06.042Z,35.5155
2023-04-16T11:22:09.960Z,35.5532
2023-04-16T11:23:10.310Z,35.5465
2023-04-16T11:24:14.254Z,35.5459
2023-04-16T11:25:18.135Z,35.5475
2023-04-16T11:26:22.016Z,35.5907
2023-04-16T11:27:25.915Z,35.5433
2023-04-16T11:28:29.801Z,35.5923
2023-04-16T11:29:33.689Z,35.6349
2023-04-16T11:30:37.584Z,35.6441
2023-04-16T11:31:41.495Z,35.6639
2023-04-16T11:32:45.419Z,35.6384
2023-04-16T11:33:49.276Z,35.6623
2023-04-16T11:34:53.387Z,35.6810
2023-04-16T11:35:57.279Z,35.6242
2023-04-16T11:37:01.169Z,35.6233
2023-04-16T11:38:05.317Z,35.6683
2023-04-16T11:39:09.323Z,35.6492
2023-04-16T11:40:13.624Z,35.6225
2023-04-16T11:41:17.480Z,35.6297
2023-04-16T11:42:21.613Z,35.6177
2023-04-16T11:43:25.504Z,35.6350
2023-04-16T11:44:29.386Z,35.6295
2023-04-16T11:45:33.282Z,35.6588
2023-04-16T11:46:37.196Z,35.6369
2023-04-16T11:47:41.123Z,35.6529
2023-04-16T11:48:45.045Z,35.6075
2023-04-16T11:49:48.953Z,35.6447
2023-04-16T11:50:52.826Z,35.6262
2023-04-16T11:51:56.742Z,35.6103
2023-04-16T11:53:00.829Z,35.6102
2023-04-16T11:54:04.733Z,35.5899
2023-04-16T11:55:08.845Z,35.5190
2023-04-16T11:56:12.743Z,35.5417
2023-04-16T11:57:16.652Z,35.5632
2023-04-16T11:58:20.541Z,35.5727
2023-04-16T11:59:21.384Z,35.5899
2023-04-16T12:00:25.270Z,35.5924
2023-04-16T12:01:29.178Z,35.6305
2023-04-16T12:02:33.148Z,35.6449
2023-04-16T12:03:37.339Z,35.6341
2023-04-16T12:04:41.485Z,35.6645
2023-04-16T12:05:45.387Z,35.6359
2023-04-16T12:06:49.293Z,35.6314
2023-04-16T12:07:53.478Z,35.6583
2023-04-16T12:08:57.366Z,35.6659
2023-04-16T12:10:01.276Z,35.6200
2023-04-16T12:11:05.174Z,35.6475
2023-04-16T12:12:09.319Z,35.5556
2023-04-16T12:13:13.218Z,35.5816
2023-04-16T12:14:17.121Z,35.6313
2023-04-16T12:15:21.249Z,35.6197
2023-04-16T12:16:25.157Z,35.6443
2023-04-16T12:17:29.084Z,35.6791
2023-04-16T12:18:32.935Z,35.6592
2023-04-16T12:19:36.842Z,35.6588
2023-04-16T12:20:40.723Z,35.7208
2023-04-16T12:21:44.604Z,35.7619
2023-04-16T12:22:48.751Z,35.8006
2023-04-16T12:23:52.627Z,35.8275
2023-04-16T12:24:56.757Z,35.8191
2023-04-16T12:26:00.646Z,35.8312
2023-04-16T12:27:04.552Z,35.8632
2023-04-16T12:28:08.421Z,35.8727
2023-04-16T12:29:12.313Z,35.8138
2023-04-16T12:30:16.432Z,35.8930
2023-04-16T12:31:20.420Z,35.9582
2023-04-16T12:32:24.349Z,35.9796
2023-04-16T12:33:28.298Z,35.9755
2023-04-16T12:34:46.765Z,35.9426
2023-04-16T12:35:36.929Z,35.8763
2023-04-16T12:36:40.827Z,35.8531
2023-04-16T12:37:44.956Z,35.7814
2023-04-16T12:38:48.862Z,35.7592
2023-04-16T12:39:53.001Z,35.8041
2023-04-16T12:40:57.332Z,35.9564
2023-04-16T12:42:01.334Z,35.9065
2023-04-16T12:43:05.518Z,35.8693
2023-04-16T12:44:09.392Z,35.8607
2023-04-16T12:45:13.278Z,35.8718
2023-04-16T12:46:17.208Z,35.8335
2023-04-16T12:47:21.108Z,35.8700
2023-04-16T12:48:24.964Z,35.9014
2023-04-16T12:49:28.861Z,35.9202
2023-04-16T12:50:32.751Z,35.9374
2023-04-16T12:51:36.646Z,35.9267
2023-04-16T12:52:40.537Z,35.8612